sensor_id;sensor_type;location;lat;lon;timestamp;P1;durP1;ratioP1;P2;durP2;ratioP2
17614;SDS011;8926;49.720;6.576;2023-03-13T00:01:01;4.70;;;2.50;;
17614;SDS011;8926;49.720;6.576;2023-03-13T00:03:33;6.33;;;2.43;;
17614;SDS011;8926;49.720;6.576;2023-03-13T00:05:58;7.73;;;3.23;;
17614;SDS011;8926;49.720;6.576;2023-03-13T00:08:24;5.07;;;2.57;;
17614;SDS011;8926;49.720;6.576;2023-03-13T00:10:53;8.20;;;2.90;;
17614;SDS011;8926;49.720;6.576;2023-03-13T00:13:18;6.20;;;2.77;;
17614;SDS011;8926;49.720;6.576;2023-03-13T00:15:43;4.43;;;1.93;;
17614;SDS011;8926;49.720;6.576;2023-03-13T00:18:09;7.83;;;2.87;;
17614;SDS011;8926;49.720;6.576;2023-03-13T00:20:34;5.87;;;2.37;;
17614;SDS011;8926;49.720;6.576;2023-03-13T00:22:59;7.40;;;2.10;;
17614;SDS011;8926;49.720;6.576;2023-03-13T00:25:24;3.83;;;2.07;;
17614;SDS011;8926;49.720;6.576;2023-03-13T00:27:50;6.23;;;3.03;;
17614;SDS011;8926;49.720;6.576;2023-03-13T00:30:15;4.47;;;2.00;;
17614;SDS011;8926;49.720;6.576;2023-03-13T00:32:44;10.13;;;2.83;;
17614;SDS011;8926;49.720;6.576;2023-03-13T00:35:11;6.27;;;2.40;;
17614;SDS011;8926;49.720;6.576;2023-03-13T00:37:37;5.57;;;2.53;;
17614;SDS011;8926;49.720;6.576;2023-03-13T00:40:03;4.70;;;2.57;;
17614;SDS011;8926;49.720;6.576;2023-03-13T00:42:29;6.40;;;2.20;;
17614;SDS011;8926;49.720;6.576;2023-03-13T00:44:55;8.73;;;2.70;;
17614;SDS011;8926;49.720;6.576;2023-03-13T00:47:20;6.90;;;2.50;;
17614;SDS011;8926;49.720;6.576;2023-03-13T00:49:45;7.57;;;2.87;;
17614;SDS011;8926;49.720;6.576;2023-03-13T00:52:11;12.43;;;3.47;;
17614;SDS011;8926;49.720;6.576;2023-03-13T00:54:36;6.53;;;2.73;;
17614;SDS011;8926;49.720;6.576;2023-03-13T00:57:01;11.00;;;3.43;;
17614;SDS011;8926;49.720;6.576;2023-03-13T00:59:27;5.27;;;2.77;;
17614;SDS011;8926;49.720;6.576;2023-03-13T01:01:52;8.97;;;2.73;;
17614;SDS011;8926;49.720;6.576;2023-03-13T01:04:17;8.63;;;3.13;;
17614;SDS011;8926;49.720;6.576;2023-03-13T01:06:43;8.63;;;3.30;;
17614;SDS011;8926;49.720;6.576;2023-03-13T01:09:10;11.47;;;2.87;;
17614;SDS011;8926;49.720;6.576;2023-03-13T01:11:38;12.20;;;3.30;;
17614;SDS011;8926;49.720;6.576;2023-03-13T01:14:06;5.97;;;3.10;;
17614;SDS011;8926;49.720;6.576;2023-03-13T01:16:37;6.57;;;2.80;;
17614;SDS011;8926;49.720;6.576;2023-03-13T01:19:07;8.90;;;3.10;;
17614;SDS011;8926;49.720;6.576;2023-03-13T01:21:33;5.03;;;2.80;;
17614;SDS011;8926;49.720;6.576;2023-03-13T01:23:59;7.00;;;3.00;;
17614;SDS011;8926;49.720;6.576;2023-03-13T01:26:25;7.73;;;2.97;;
17614;SDS011;8926;49.720;6.576;2023-03-13T01:28:51;10.30;;;3.10;;
17614;SDS011;8926;49.720;6.576;2023-03-13T01:31:17;4.60;;;2.53;;
17614;SDS011;8926;49.720;6.576;2023-03-13T01:33:45;7.67;;;2.57;;
17614;SDS011;8926;49.720;6.576;2023-03-13T01:36:11;9.17;;;2.77;;
17614;SDS011;8926;49.720;6.576;2023-03-13T01:38:37;13.33;;;3.27;;
17614;SDS011;8926;49.720;6.576;2023-03-13T01:41:03;6.27;;;2.97;;
17614;SDS011;8926;49.720;6.576;2023-03-13T01:43:30;6.57;;;2.40;;
17614;SDS011;8926;49.720;6.576;2023-03-13T01:54:15;4.50;;;2.33;;
17614;SDS011;8926;49.720;6.576;2023-03-13T01:56:49;4.90;;;2.23;;
17614;SDS011;8926;49.720;6.576;2023-03-13T01:59:22;1.83;;;1.50;;
17614;SDS011;8926;49.720;6.576;2023-03-13T02:01:56;4.60;;;2.13;;
17614;SDS011;8926;49.720;6.576;2023-03-13T02:04:24;2.87;;;1.60;;
17614;SDS011;8926;49.720;6.576;2023-03-13T02:06:56;6.50;;;2.13;;
17614;SDS011;8926;49.720;6.576;2023-03-13T02:09:24;3.43;;;2.07;;
17614;SDS011;8926;49.720;6.576;2023-03-13T02:12:03;4.77;;;2.17;;
17614;SDS011;8926;49.720;6.576;2023-03-13T02:14:34;4.40;;;2.13;;
17614;SDS011;8926;49.720;6.576;2023-03-13T02:17:01;3.37;;;1.87;;
17614;SDS011;8926;49.720;6.576;2023-03-13T02:19:36;3.70;;;1.60;;
17614;SDS011;8926;49.720;6.576;2023-03-13T02:22:30;4.10;;;1.77;;
17614;SDS011;8926;49.720;6.576;2023-03-13T02:24:57;3.57;;;1.63;;
17614;SDS011;8926;49.720;6.576;2023-03-13T02:27:30;3.50;;;1.50;;
17614;SDS011;8926;49.720;6.576;2023-03-13T02:29:56;2.83;;;1.27;;
17614;SDS011;8926;49.720;6.576;2023-03-13T02:32:23;3.10;;;1.60;;
17614;SDS011;8926;49.720;6.576;2023-03-13T02:34:51;3.57;;;1.50;;
17614;SDS011;8926;49.720;6.576;2023-03-13T02:37:20;2.10;;;1.30;;
17614;SDS011;8926;49.720;6.576;2023-03-13T02:39:46;3.20;;;1.20;;
17614;SDS011;8926;49.720;6.576;2023-03-13T02:42:15;2.33;;;1.40;;
17614;SDS011;8926;49.720;6.576;2023-03-13T02:44:44;3.00;;;1.10;;
17614;SDS011;8926;49.720;6.576;2023-03-13T02:47:10;3.67;;;1.40;;
17614;SDS011;8926;49.720;6.576;2023-03-13T02:49:36;2.37;;;1.10;;
17614;SDS011;8926;49.720;6.576;2023-03-13T02:52:12;4.47;;;1.53;;
17614;SDS011;8926;49.720;6.576;2023-03-13T02:54:41;2.63;;;1.07;;
17614;SDS011;8926;49.720;6.576;2023-03-13T02:57:09;1.50;;;1.20;;
17614;SDS011;8926;49.720;6.576;2023-03-13T02:59:34;2.43;;;1.10;;
17614;SDS011;8926;49.720;6.576;2023-03-13T03:02:00;1.13;;;1.00;;
17614;SDS011;8926;49.720;6.576;2023-03-13T03:04:25;1.87;;;1.10;;
17614;SDS011;8926;49.720;6.576;2023-03-13T03:06:51;2.20;;;1.40;;
17614;SDS011;8926;49.720;6.576;2023-03-13T03:09:17;1.30;;;1.20;;
17614;SDS011;8926;49.720;6.576;2023-03-13T03:11:44;3.50;;;1.47;;
17614;SDS011;8926;49.720;6.576;2023-03-13T03:14:10;1.20;;;1.10;;
17614;SDS011;8926;49.720;6.576;2023-03-13T03:16:36;1.30;;;1.10;;
17614;SDS011;8926;49.720;6.576;2023-03-13T03:19:02;2.10;;;1.10;;
17614;SDS011;8926;49.720;6.576;2023-03-13T03:21:27;2.27;;;1.23;;
17614;SDS011;8926;49.720;6.576;2023-03-13T03:23:52;2.47;;;1.50;;
17614;SDS011;8926;49.720;6.576;2023-03-13T03:26:18;1.97;;;1.77;;
17614;SDS011;8926;49.720;6.576;2023-03-13T03:28:44;1.30;;;1.20;;
17614;SDS011;8926;49.720;6.576;2023-03-13T03:31:10;2.17;;;1.27;;
17614;SDS011;8926;49.720;6.576;2023-03-13T03:33:37;2.03;;;1.40;;
17614;SDS011;8926;49.720;6.576;2023-03-13T03:36:04;4.67;;;1.63;;
17614;SDS011;8926;49.720;6.576;2023-03-13T03:38:31;1.57;;;1.47;;
17614;SDS011;8926;49.720;6.576;2023-03-13T03:40:58;2.07;;;1.60;;
17614;SDS011;8926;49.720;6.576;2023-03-13T03:43:23;1.80;;;1.70;;
17614;SDS011;8926;49.720;6.576;2023-03-13T03:45:49;2.10;;;1.40;;
17614;SDS011;8926;49.720;6.576;2023-03-13T03:48:14;1.30;;;1.20;;
17614;SDS011;8926;49.720;6.576;2023-03-13T03:50:39;2.93;;;2.20;;
17614;SDS011;8926;49.720;6.576;2023-03-13T03:53:04;1.93;;;1.70;;
17614;SDS011;8926;49.720;6.576;2023-03-13T03:55:30;1.77;;;1.60;;
17614;SDS011;8926;49.720;6.576;2023-03-13T03:57:55;2.60;;;2.03;;
17614;SDS011;8926;49.720;6.576;2023-03-13T04:00:20;3.17;;;2.10;;
17614;SDS011;8926;49.720;6.576;2023-03-13T04:02:46;2.97;;;2.77;;
17614;SDS011;8926;49.720;6.576;2023-03-13T04:05:11;2.63;;;2.33;;
17614;SDS011;8926;49.720;6.576;2023-03-13T04:07:37;3.40;;;2.20;;
17614;SDS011;8926;49.720;6.576;2023-03-13T04:10:03;2.73;;;2.50;;
17614;SDS011;8926;49.720;6.576;2023-03-13T04:12:29;2.90;;;2.70;;
17614;SDS011;8926;49.720;6.576;2023-03-13T04:14:54;3.10;;;2.87;;
17614;SDS011;8926;49.720;6.576;2023-03-13T04:17:19;2.73;;;2.53;;
17614;SDS011;8926;49.720;6.576;2023-03-13T04:19:45;3.33;;;2.70;;
17614;SDS011;8926;49.720;6.576;2023-03-13T04:22:10;3.20;;;2.90;;
17614;SDS011;8926;49.720;6.576;2023-03-13T04:24:35;3.17;;;2.87;;
17614;SDS011;8926;49.720;6.576;2023-03-13T04:27:01;3.00;;;2.70;;
17614;SDS011;8926;49.720;6.576;2023-03-13T04:29:27;3.23;;;2.60;;
17614;SDS011;8926;49.720;6.576;2023-03-13T04:31:53;2.60;;;2.40;;
17614;SDS011;8926;49.720;6.576;2023-03-13T04:34:18;2.53;;;2.40;;
17614;SDS011;8926;49.720;6.576;2023-03-13T04:36:44;1.93;;;1.83;;
17614;SDS011;8926;49.720;6.576;2023-03-13T04:39:09;2.10;;;1.77;;
17614;SDS011;8926;49.720;6.576;2023-03-13T04:41:34;2.77;;;1.93;;
17614;SDS011;8926;49.720;6.576;2023-03-13T04:43:59;1.87;;;1.70;;
17614;SDS011;8926;49.720;6.576;2023-03-13T04:46:25;2.37;;;2.27;;
17614;SDS011;8926;49.720;6.576;2023-03-13T04:48:50;3.03;;;2.13;;
17614;SDS011;8926;49.720;6.576;2023-03-13T04:51:15;3.97;;;2.33;;
17614;SDS011;8926;49.720;6.576;2023-03-13T04:53:40;2.40;;;2.30;;
17614;SDS011;8926;49.720;6.576;2023-03-13T04:56:06;2.10;;;2.00;;
17614;SDS011;8926;49.720;6.576;2023-03-13T04:58:31;2.80;;;1.80;;
17614;SDS011;8926;49.720;6.576;2023-03-13T05:00:56;1.60;;;1.50;;
17614;SDS011;8926;49.720;6.576;2023-03-13T05:03:22;1.97;;;1.50;;
17614;SDS011;8926;49.720;6.576;2023-03-13T05:05:48;2.40;;;1.57;;
17614;SDS011;8926;49.720;6.576;2023-03-13T05:08:13;2.27;;;1.97;;
17614;SDS011;8926;49.720;6.576;2023-03-13T05:10:40;1.60;;;1.50;;
17614;SDS011;8926;49.720;6.576;2023-03-13T05:13:06;1.47;;;1.37;;
17614;SDS011;8926;49.720;6.576;2023-03-13T05:15:32;2.30;;;1.37;;
17614;SDS011;8926;49.720;6.576;2023-03-13T05:17:57;1.97;;;1.70;;
17614;SDS011;8926;49.720;6.576;2023-03-13T05:20:22;2.23;;;2.10;;
17614;SDS011;8926;49.720;6.576;2023-03-13T05:22:47;1.90;;;1.80;;
17614;SDS011;8926;49.720;6.576;2023-03-13T05:25:13;2.67;;;1.90;;
17614;SDS011;8926;49.720;6.576;2023-03-13T05:27:39;2.20;;;1.80;;
17614;SDS011;8926;49.720;6.576;2023-03-13T05:30:04;2.20;;;2.10;;
17614;SDS011;8926;49.720;6.576;2023-03-13T05:32:30;1.70;;;1.60;;
17614;SDS011;8926;49.720;6.576;2023-03-13T05:34:55;1.80;;;1.70;;
17614;SDS011;8926;49.720;6.576;2023-03-13T05:37:21;2.07;;;1.90;;
17614;SDS011;8926;49.720;6.576;2023-03-13T05:39:46;2.00;;;1.90;;
17614;SDS011;8926;49.720;6.576;2023-03-13T05:42:11;2.20;;;1.90;;
17614;SDS011;8926;49.720;6.576;2023-03-13T05:44:37;1.63;;;1.53;;
17614;SDS011;8926;49.720;6.576;2023-03-13T05:47:02;3.17;;;1.70;;
17614;SDS011;8926;49.720;6.576;2023-03-13T05:49:27;2.00;;;1.90;;
17614;SDS011;8926;49.720;6.576;2023-03-13T05:51:52;2.37;;;1.70;;
17614;SDS011;8926;49.720;6.576;2023-03-13T05:54:18;1.93;;;1.83;;
17614;SDS011;8926;49.720;6.576;2023-03-13T05:56:43;2.33;;;2.07;;
17614;SDS011;8926;49.720;6.576;2023-03-13T05:59:08;2.70;;;1.63;;
17614;SDS011;8926;49.720;6.576;2023-03-13T06:01:34;2.90;;;2.17;;
17614;SDS011;8926;49.720;6.576;2023-03-13T06:03:59;2.87;;;2.00;;
17614;SDS011;8926;49.720;6.576;2023-03-13T06:06:24;3.30;;;2.10;;
17614;SDS011;8926;49.720;6.576;2023-03-13T06:08:52;2.73;;;2.40;;
17614;SDS011;8926;49.720;6.576;2023-03-13T06:11:18;4.67;;;2.33;;
17614;SDS011;8926;49.720;6.576;2023-03-13T06:13:43;1.70;;;1.60;;
17614;SDS011;8926;49.720;6.576;2023-03-13T06:16:08;5.00;;;2.37;;
17614;SDS011;8926;49.720;6.576;2023-03-13T06:18:34;3.63;;;2.20;;
17614;SDS011;8926;49.720;6.576;2023-03-13T06:21:00;2.43;;;2.00;;
17614;SDS011;8926;49.720;6.576;2023-03-13T06:23:26;3.03;;;2.30;;
17614;SDS011;8926;49.720;6.576;2023-03-13T06:25:52;3.33;;;2.20;;
17614;SDS011;8926;49.720;6.576;2023-03-13T06:28:18;4.33;;;2.70;;
17614;SDS011;8926;49.720;6.576;2023-03-13T06:30:43;5.43;;;2.83;;
17614;SDS011;8926;49.720;6.576;2023-03-13T06:33:08;2.87;;;2.67;;
17614;SDS011;8926;49.720;6.576;2023-03-13T06:35:34;2.90;;;2.40;;
17614;SDS011;8926;49.720;6.576;2023-03-13T06:37:59;2.50;;;2.30;;
17614;SDS011;8926;49.720;6.576;2023-03-13T06:40:25;5.00;;;2.33;;
17614;SDS011;8926;49.720;6.576;2023-03-13T06:42:50;5.63;;;2.83;;
17614;SDS011;8926;49.720;6.576;2023-03-13T06:45:15;2.60;;;2.40;;
17614;SDS011;8926;49.720;6.576;2023-03-13T06:47:41;4.23;;;2.77;;
17614;SDS011;8926;49.720;6.576;2023-03-13T06:50:06;2.90;;;2.60;;
17614;SDS011;8926;49.720;6.576;2023-03-13T06:52:32;2.83;;;2.53;;
17614;SDS011;8926;49.720;6.576;2023-03-13T06:54:57;4.20;;;2.90;;
17614;SDS011;8926;49.720;6.576;2023-03-13T06:57:22;3.10;;;2.80;;
17614;SDS011;8926;49.720;6.576;2023-03-13T06:59:48;4.27;;;2.93;;
17614;SDS011;8926;49.720;6.576;2023-03-13T07:02:13;3.27;;;2.20;;
17614;SDS011;8926;49.720;6.576;2023-03-13T07:04:40;3.60;;;2.60;;
17614;SDS011;8926;49.720;6.576;2023-03-13T07:07:05;2.77;;;2.20;;
17614;SDS011;8926;49.720;6.576;2023-03-13T07:09:31;5.43;;;3.07;;
17614;SDS011;8926;49.720;6.576;2023-03-13T07:11:56;3.20;;;2.90;;
17614;SDS011;8926;49.720;6.576;2023-03-13T07:14:22;5.60;;;3.77;;
17614;SDS011;8926;49.720;6.576;2023-03-13T07:16:48;4.33;;;3.90;;
17614;SDS011;8926;49.720;6.576;2023-03-13T07:19:14;3.60;;;3.30;;
17614;SDS011;8926;49.720;6.576;2023-03-13T07:21:40;3.57;;;2.30;;
17614;SDS011;8926;49.720;6.576;2023-03-13T07:24:05;3.30;;;2.70;;
17614;SDS011;8926;49.720;6.576;2023-03-13T07:26:31;3.27;;;2.70;;
17614;SDS011;8926;49.720;6.576;2023-03-13T07:28:56;3.10;;;2.80;;
17614;SDS011;8926;49.720;6.576;2023-03-13T07:31:21;3.93;;;3.40;;
17614;SDS011;8926;49.720;6.576;2023-03-13T07:33:50;3.93;;;2.97;;
17614;SDS011;8926;49.720;6.576;2023-03-13T07:36:18;5.23;;;4.07;;
17614;SDS011;8926;49.720;6.576;2023-03-13T07:38:46;6.53;;;4.17;;
17614;SDS011;8926;49.720;6.576;2023-03-13T07:41:12;3.20;;;2.90;;
17614;SDS011;8926;49.720;6.576;2023-03-13T07:43:38;6.20;;;4.63;;
17614;SDS011;8926;49.720;6.576;2023-03-13T07:46:04;5.83;;;4.70;;
17614;SDS011;8926;49.720;6.576;2023-03-13T07:48:34;5.40;;;4.87;;
17614;SDS011;8926;49.720;6.576;2023-03-13T07:51:02;4.40;;;3.20;;
17614;SDS011;8926;49.720;6.576;2023-03-13T07:53:28;6.23;;;4.37;;
17614;SDS011;8926;49.720;6.576;2023-03-13T07:55:54;7.17;;;5.13;;
17614;SDS011;8926;49.720;6.576;2023-03-13T07:58:20;3.60;;;3.30;;
17614;SDS011;8926;49.720;6.576;2023-03-13T08:00:46;4.80;;;3.27;;
17614;SDS011;8926;49.720;6.576;2023-03-13T08:03:12;5.43;;;3.27;;
17614;SDS011;8926;49.720;6.576;2023-03-13T08:05:37;4.37;;;2.70;;
17614;SDS011;8926;49.720;6.576;2023-03-13T08:08:02;3.13;;;2.70;;
17614;SDS011;8926;49.720;6.576;2023-03-13T08:10:29;4.27;;;2.30;;
17614;SDS011;8926;49.720;6.576;2023-03-13T08:12:54;3.53;;;2.93;;
17614;SDS011;8926;49.720;6.576;2023-03-13T08:15:20;3.13;;;2.93;;
17614;SDS011;8926;49.720;6.576;2023-03-13T08:17:49;3.30;;;2.67;;
17614;SDS011;8926;49.720;6.576;2023-03-13T08:20:15;3.37;;;2.30;;
17614;SDS011;8926;49.720;6.576;2023-03-13T08:22:42;3.00;;;2.77;;
17614;SDS011;8926;49.720;6.576;2023-03-13T08:25:10;2.87;;;2.67;;
17614;SDS011;8926;49.720;6.576;2023-03-13T08:27:36;3.30;;;2.63;;
17614;SDS011;8926;49.720;6.576;2023-03-13T08:30:01;3.80;;;2.60;;
17614;SDS011;8926;49.720;6.576;2023-03-13T08:32:26;3.30;;;3.00;;
17614;SDS011;8926;49.720;6.576;2023-03-13T08:34:51;4.23;;;3.10;;
17614;SDS011;8926;49.720;6.576;2023-03-13T08:37:17;5.37;;;3.23;;
17614;SDS011;8926;49.720;6.576;2023-03-13T08:39:42;5.83;;;3.10;;
17614;SDS011;8926;49.720;6.576;2023-03-13T08:42:10;3.50;;;3.20;;
17614;SDS011;8926;49.720;6.576;2023-03-13T08:44:38;3.13;;;2.73;;
17614;SDS011;8926;49.720;6.576;2023-03-13T08:47:04;2.63;;;2.43;;
17614;SDS011;8926;49.720;6.576;2023-03-13T08:49:30;6.10;;;3.43;;
17614;SDS011;8926;49.720;6.576;2023-03-13T08:51:55;2.93;;;2.50;;
17614;SDS011;8926;49.720;6.576;2023-03-13T08:54:21;4.47;;;2.80;;
17614;SDS011;8926;49.720;6.576;2023-03-13T08:56:46;3.33;;;2.73;;
17614;SDS011;8926;49.720;6.576;2023-03-13T08:59:11;3.77;;;2.87;;
17614;SDS011;8926;49.720;6.576;2023-03-13T09:01:39;3.70;;;3.10;;
17614;SDS011;8926;49.720;6.576;2023-03-13T09:04:05;3.37;;;3.07;;
17614;SDS011;8926;49.720;6.576;2023-03-13T09:06:35;4.97;;;3.10;;
17614;SDS011;8926;49.720;6.576;2023-03-13T09:09:02;3.43;;;2.40;;
17614;SDS011;8926;49.720;6.576;2023-03-13T09:11:29;3.20;;;2.90;;
17614;SDS011;8926;49.720;6.576;2023-03-13T09:13:55;4.87;;;3.30;;
17614;SDS011;8926;49.720;6.576;2023-03-13T09:16:24;3.37;;;2.90;;
17614;SDS011;8926;49.720;6.576;2023-03-13T09:18:54;3.17;;;2.97;;
17614;SDS011;8926;49.720;6.576;2023-03-13T09:21:21;3.50;;;3.00;;
17614;SDS011;8926;49.720;6.576;2023-03-13T09:23:52;3.20;;;2.90;;
17614;SDS011;8926;49.720;6.576;2023-03-13T09:26:17;3.67;;;2.63;;
17614;SDS011;8926;49.720;6.576;2023-03-13T09:28:44;3.00;;;2.77;;
17614;SDS011;8926;49.720;6.576;2023-03-13T09:31:11;3.50;;;2.70;;
17614;SDS011;8926;49.720;6.576;2023-03-13T09:33:44;3.87;;;3.00;;
17614;SDS011;8926;49.720;6.576;2023-03-13T09:36:11;3.97;;;2.53;;
17614;SDS011;8926;49.720;6.576;2023-03-13T09:38:36;3.60;;;2.97;;
17614;SDS011;8926;49.720;6.576;2023-03-13T09:41:04;3.47;;;2.50;;
17614;SDS011;8926;49.720;6.576;2023-03-13T09:43:45;2.90;;;2.50;;
17614;SDS011;8926;49.720;6.576;2023-03-13T09:46:20;3.93;;;2.43;;
17614;SDS011;8926;49.720;6.576;2023-03-13T09:48:52;4.33;;;3.03;;
17614;SDS011;8926;49.720;6.576;2023-03-13T09:51:28;2.73;;;2.50;;
17614;SDS011;8926;49.720;6.576;2023-03-13T09:54:21;2.70;;;2.50;;
17614;SDS011;8926;49.720;6.576;2023-03-13T09:56:52;3.00;;;2.30;;
17614;SDS011;8926;49.720;6.576;2023-03-13T10:02:15;2.27;;;2.17;;
17614;SDS011;8926;49.720;6.576;2023-03-13T10:05:04;2.97;;;2.67;;
17614;SDS011;8926;49.720;6.576;2023-03-13T10:07:34;2.67;;;2.47;;
17614;SDS011;8926;49.720;6.576;2023-03-13T10:10:00;3.23;;;2.23;;
17614;SDS011;8926;49.720;6.576;2023-03-13T10:12:27;5.07;;;2.43;;
17614;SDS011;8926;49.720;6.576;2023-03-13T10:17:33;3.67;;;2.47;;
17614;SDS011;8926;49.720;6.576;2023-03-13T10:22:34;3.13;;;2.10;;
17614;SDS011;8926;49.720;6.576;2023-03-13T10:25:14;3.17;;;2.10;;
17614;SDS011;8926;49.720;6.576;2023-03-13T10:27:59;1.77;;;1.67;;
17614;SDS011;8926;49.720;6.576;2023-03-13T10:30:29;2.70;;;2.23;;
17614;SDS011;8926;49.720;6.576;2023-03-13T10:32:59;3.53;;;2.10;;
17614;SDS011;8926;49.720;6.576;2023-03-13T10:35:42;2.70;;;1.90;;
17614;SDS011;8926;49.720;6.576;2023-03-13T10:38:09;2.43;;;2.20;;
17614;SDS011;8926;49.720;6.576;2023-03-13T10:40:36;2.90;;;2.50;;
17614;SDS011;8926;49.720;6.576;2023-03-13T10:43:06;2.57;;;2.07;;
17614;SDS011;8926;49.720;6.576;2023-03-13T10:45:37;3.00;;;2.80;;
17614;SDS011;8926;49.720;6.576;2023-03-13T10:48:11;2.50;;;2.30;;
17614;SDS011;8926;49.720;6.576;2023-03-13T10:50:43;5.63;;;3.70;;
17614;SDS011;8926;49.720;6.576;2023-03-13T10:56:08;3.40;;;3.10;;
17614;SDS011;8926;49.720;6.576;2023-03-13T10:58:42;2.40;;;2.30;;
17614;SDS011;8926;49.720;6.576;2023-03-13T11:03:58;2.20;;;2.00;;
17614;SDS011;8926;49.720;6.576;2023-03-13T11:12:01;2.03;;;1.73;;
17614;SDS011;8926;49.720;6.576;2023-03-13T11:14:29;2.63;;;1.90;;
17614;SDS011;8926;49.720;6.576;2023-03-13T11:16:58;2.63;;;2.43;;
17614;SDS011;8926;49.720;6.576;2023-03-13T11:19:39;2.67;;;2.13;;
17614;SDS011;8926;49.720;6.576;2023-03-13T11:22:36;2.83;;;2.47;;
17614;SDS011;8926;49.720;6.576;2023-03-13T11:25:17;4.20;;;2.03;;
17614;SDS011;8926;49.720;6.576;2023-03-13T11:30:26;3.23;;;1.73;;
17614;SDS011;8926;49.720;6.576;2023-03-13T11:38:42;3.33;;;2.23;;
17614;SDS011;8926;49.720;6.576;2023-03-13T11:44:18;1.67;;;1.57;;
17614;SDS011;8926;49.720;6.576;2023-03-13T11:49:32;3.90;;;2.57;;
17614;SDS011;8926;49.720;6.576;2023-03-13T11:54:47;2.20;;;2.00;;
17614;SDS011;8926;49.720;6.576;2023-03-13T11:57:20;1.93;;;1.80;;
17614;SDS011;8926;49.720;6.576;2023-03-13T12:02:50;2.43;;;1.80;;
17614;SDS011;8926;49.720;6.576;2023-03-13T12:05:20;2.10;;;1.90;;
17614;SDS011;8926;49.720;6.576;2023-03-13T12:10:36;1.73;;;1.63;;
17614;SDS011;8926;49.720;6.576;2023-03-13T12:13:18;2.07;;;1.87;;
17614;SDS011;8926;49.720;6.576;2023-03-13T12:15:53;1.93;;;1.83;;
17614;SDS011;8926;49.720;6.576;2023-03-13T12:18:35;2.10;;;1.90;;
17614;SDS011;8926;49.720;6.576;2023-03-13T12:24:03;1.47;;;1.37;;
17614;SDS011;8926;49.720;6.576;2023-03-13T12:26:54;1.27;;;1.20;;
17614;SDS011;8926;49.720;6.576;2023-03-13T12:34:52;2.57;;;1.67;;
17614;SDS011;8926;49.720;6.576;2023-03-13T12:40:20;1.60;;;1.50;;
17614;SDS011;8926;49.720;6.576;2023-03-13T12:51:36;1.33;;;1.23;;
17614;SDS011;8926;49.720;6.576;2023-03-13T12:57:00;1.37;;;1.37;;
17614;SDS011;8926;49.720;6.576;2023-03-13T12:59:37;1.30;;;1.30;;
17614;SDS011;8926;49.720;6.576;2023-03-13T13:02:12;1.47;;;1.37;;
17614;SDS011;8926;49.720;6.576;2023-03-13T13:04:43;1.40;;;1.30;;
17614;SDS011;8926;49.720;6.576;2023-03-13T13:15:59;1.40;;;1.30;;
17614;SDS011;8926;49.720;6.576;2023-03-13T13:18:26;1.40;;;1.30;;
17614;SDS011;8926;49.720;6.576;2023-03-13T13:23:37;6.20;;;2.80;;
17614;SDS011;8926;49.720;6.576;2023-03-13T13:34:52;2.97;;;2.50;;
17614;SDS011;8926;49.720;6.576;2023-03-13T13:39:45;2.30;;;2.10;;
17614;SDS011;8926;49.720;6.576;2023-03-13T13:45:01;4.40;;;4.00;;
17614;SDS011;8926;49.720;6.576;2023-03-13T13:47:49;2.70;;;2.50;;
17614;SDS011;8926;49.720;6.576;2023-03-13T13:50:22;2.90;;;2.70;;
17614;SDS011;8926;49.720;6.576;2023-03-13T13:52:50;3.63;;;3.33;;
17614;SDS011;8926;49.720;6.576;2023-03-13T13:57:50;3.07;;;2.77;;
17614;SDS011;8926;49.720;6.576;2023-03-13T14:00:26;1.90;;;1.80;;
17614;SDS011;8926;49.720;6.576;2023-03-13T14:02:58;2.17;;;1.97;;
17614;SDS011;8926;49.720;6.576;2023-03-13T14:05:25;1.70;;;1.60;;
17614;SDS011;8926;49.720;6.576;2023-03-13T14:11:07;3.60;;;2.50;;
17614;SDS011;8926;49.720;6.576;2023-03-13T14:16:34;2.00;;;1.90;;
17614;SDS011;8926;49.720;6.576;2023-03-13T14:19:01;1.57;;;1.47;;
17614;SDS011;8926;49.720;6.576;2023-03-13T14:21:27;1.83;;;1.40;;
17614;SDS011;8926;49.720;6.576;2023-03-13T14:23:53;1.27;;;1.17;;
17614;SDS011;8926;49.720;6.576;2023-03-13T14:26:19;1.10;;;1.00;;
17614;SDS011;8926;49.720;6.576;2023-03-13T14:28:50;1.90;;;1.27;;
17614;SDS011;8926;49.720;6.576;2023-03-13T14:33:50;1.67;;;1.57;;
17614;SDS011;8926;49.720;6.576;2023-03-13T14:36:16;1.50;;;1.40;;
17614;SDS011;8926;49.720;6.576;2023-03-13T14:39:00;1.40;;;1.30;;
17614;SDS011;8926;49.720;6.576;2023-03-13T14:41:29;1.20;;;1.20;;
17614;SDS011;8926;49.720;6.576;2023-03-13T14:44:10;0.90;;;0.90;;
17614;SDS011;8926;49.720;6.576;2023-03-13T14:46:41;2.87;;;1.40;;
17614;SDS011;8926;49.720;6.576;2023-03-13T14:49:12;1.40;;;1.30;;
17614;SDS011;8926;49.720;6.576;2023-03-13T14:51:38;1.90;;;1.80;;
17614;SDS011;8926;49.720;6.576;2023-03-13T14:54:04;1.60;;;1.50;;
17614;SDS011;8926;49.720;6.576;2023-03-13T14:56:34;1.53;;;1.10;;
17614;SDS011;8926;49.720;6.576;2023-03-13T14:59:07;1.00;;;1.00;;
17614;SDS011;8926;49.720;6.576;2023-03-13T15:01:38;0.70;;;0.70;;
17614;SDS011;8926;49.720;6.576;2023-03-13T15:04:04;2.03;;;0.93;;
17614;SDS011;8926;49.720;6.576;2023-03-13T15:06:29;1.30;;;1.20;;
17614;SDS011;8926;49.720;6.576;2023-03-13T15:09:14;1.00;;;0.90;;
17614;SDS011;8926;49.720;6.576;2023-03-13T15:12:03;1.73;;;1.30;;
17614;SDS011;8926;49.720;6.576;2023-03-13T15:17:22;1.33;;;0.70;;
17614;SDS011;8926;49.720;6.576;2023-03-13T15:19:50;2.30;;;1.00;;
17614;SDS011;8926;49.720;6.576;2023-03-13T15:22:31;2.30;;;1.10;;
17614;SDS011;8926;49.720;6.576;2023-03-13T15:25:02;1.43;;;1.10;;
17614;SDS011;8926;49.720;6.576;2023-03-13T15:27:28;1.37;;;1.07;;
17614;SDS011;8926;49.720;6.576;2023-03-13T15:29:53;1.20;;;0.90;;
17614;SDS011;8926;49.720;6.576;2023-03-13T15:34:54;1.43;;;1.03;;
17614;SDS011;8926;49.720;6.576;2023-03-13T15:37:25;1.03;;;0.90;;
17614;SDS011;8926;49.720;6.576;2023-03-13T15:39:54;1.67;;;0.90;;
17614;SDS011;8926;49.720;6.576;2023-03-13T15:42:21;1.00;;;0.80;;
17614;SDS011;8926;49.720;6.576;2023-03-13T15:44:47;0.70;;;0.70;;
17614;SDS011;8926;49.720;6.576;2023-03-13T15:47:13;1.27;;;0.87;;
17614;SDS011;8926;49.720;6.576;2023-03-13T15:49:42;1.00;;;1.00;;
17614;SDS011;8926;49.720;6.576;2023-03-13T15:52:12;2.60;;;1.40;;
17614;SDS011;8926;49.720;6.576;2023-03-13T15:54:44;4.23;;;3.73;;
17614;SDS011;8926;49.720;6.576;2023-03-13T15:57:13;2.20;;;2.00;;
17614;SDS011;8926;49.720;6.576;2023-03-13T15:59:41;1.27;;;1.23;;
17614;SDS011;8926;49.720;6.576;2023-03-13T16:02:12;1.73;;;1.53;;
17614;SDS011;8926;49.720;6.576;2023-03-13T16:04:39;2.03;;;1.40;;
17614;SDS011;8926;49.720;6.576;2023-03-13T16:07:08;2.33;;;1.80;;
17614;SDS011;8926;49.720;6.576;2023-03-13T16:09:38;2.13;;;1.90;;
17614;SDS011;8926;49.720;6.576;2023-03-13T16:12:05;1.50;;;1.40;;
17614;SDS011;8926;49.720;6.576;2023-03-13T16:14:30;1.60;;;1.50;;
17614;SDS011;8926;49.720;6.576;2023-03-13T16:16:55;3.37;;;1.60;;
17614;SDS011;8926;49.720;6.576;2023-03-13T16:19:21;2.07;;;1.87;;
17614;SDS011;8926;49.720;6.576;2023-03-13T16:21:46;2.20;;;2.00;;
17614;SDS011;8926;49.720;6.576;2023-03-13T16:24:15;1.87;;;1.77;;
17614;SDS011;8926;49.720;6.576;2023-03-13T16:26:44;1.50;;;1.40;;
17614;SDS011;8926;49.720;6.576;2023-03-13T16:29:10;1.20;;;1.10;;
17614;SDS011;8926;49.720;6.576;2023-03-13T16:31:37;2.20;;;1.57;;
17614;SDS011;8926;49.720;6.576;2023-03-13T16:34:03;1.53;;;1.30;;
17614;SDS011;8926;49.720;6.576;2023-03-13T16:36:29;1.27;;;1.07;;
17614;SDS011;8926;49.720;6.576;2023-03-13T16:38:55;1.40;;;1.30;;
17614;SDS011;8926;49.720;6.576;2023-03-13T16:41:22;1.27;;;1.00;;
17614;SDS011;8926;49.720;6.576;2023-03-13T16:43:49;2.37;;;2.13;;
17614;SDS011;8926;49.720;6.576;2023-03-13T16:46:19;1.90;;;1.80;;
17614;SDS011;8926;49.720;6.576;2023-03-13T16:48:46;1.50;;;1.40;;
17614;SDS011;8926;49.720;6.576;2023-03-13T16:51:19;1.40;;;1.30;;
17614;SDS011;8926;49.720;6.576;2023-03-13T16:53:46;1.60;;;1.50;;
17614;SDS011;8926;49.720;6.576;2023-03-13T16:56:30;1.43;;;1.33;;
17614;SDS011;8926;49.720;6.576;2023-03-13T16:59:10;1.37;;;1.27;;
17614;SDS011;8926;49.720;6.576;2023-03-13T17:01:37;1.13;;;1.10;;